createdAt,value
2018-09-18T00:01:37.970Z,261.63
2018-09-18T00:04:17.590Z,254.27
2018-09-18T00:06:58.088Z,262.50
2018-09-18T00:09:39.633Z,210.47
2018-09-18T00:12:19.269Z,208.57
2018-09-18T00:14:58.792Z,151.03
2018-09-18T00:17:37.672Z,125.53
2018-09-18T00:20:18.529Z,99.20
2018-09-18T00:22:57.985Z,69.33
2018-09-18T00:25:37.492Z,53.33
2018-09-18T00:28:17.188Z,49.47
2018-09-18T00:30:58.107Z,49.10
2018-09-18T00:33:38.292Z,49.07
2018-09-18T00:36:19.270Z,59.33
2018-09-18T00:38:59.051Z,66.00
2018-09-18T00:41:37.851Z,83.50
2018-09-18T00:44:17.110Z,92.27
2018-09-18T00:46:56.219Z,122.57
2018-09-18T00:49:36.188Z,154.53
2018-09-18T00:52:15.409Z,156.77
2018-09-18T00:54:55.706Z,153.70
2018-09-18T00:57:36.787Z,133.23
2018-09-18T01:00:16.371Z,130.77
2018-09-18T01:02:54.808Z,150.47
2018-09-18T01:05:34.669Z,139.40
2018-09-18T01:08:13.929Z,141.57
2018-09-18T01:10:53.390Z,141.93
2018-09-18T01:13:33.770Z,147.90
2018-09-18T01:16:11.969Z,179.23
2018-09-18T01:18:51.591Z,168.00
2018-09-18T01:21:30.804Z,167.37
2018-09-18T01:24:09.190Z,156.97
2018-09-18T01:26:48.089Z,153.97
2018-09-18T01:29:27.488Z,142.20
2018-09-18T01:32:06.870Z,134.60
2018-09-18T01:34:45.895Z,117.00
2018-09-18T01:37:24.428Z,95.77
2018-09-18T01:40:03.791Z,93.47
2018-09-18T01:42:42.531Z,88.10
2018-09-18T01:45:21.688Z,74.97
2018-09-18T01:48:00.489Z,42.30
2018-09-18T01:50:40.551Z,40.63
2018-09-18T01:53:19.275Z,35.83
2018-09-18T01:55:59.784Z,34.90
2018-09-18T01:58:38.486Z,39.87
2018-09-18T02:01:21.529Z,35.63
2018-09-18T02:04:00.174Z,35.03
2018-09-18T02:06:40.729Z,33.53
2018-09-18T02:09:20.874Z,35.40
2018-09-18T02:12:00.852Z,40.73
2018-09-18T02:14:40.628Z,35.97
2018-09-18T02:17:20.510Z,37.33
2018-09-18T02:19:59.589Z,37.53
2018-09-18T02:22:38.949Z,35.93
2018-09-18T02:25:18.690Z,38.47
2018-09-18T02:27:57.513Z,37.47
2018-09-18T02:30:37.431Z,35.67
2018-09-18T02:33:16.590Z,37.37
2018-09-18T02:35:55.849Z,40.80
2018-09-18T02:38:36.569Z,40.07
2018-09-18T02:41:15.890Z,39.03
2018-09-18T02:43:52.467Z,37.77
2018-09-18T02:46:31.805Z,39.13
2018-09-18T02:49:11.148Z,43.63
2018-09-18T02:51:49.973Z,38.70
2018-09-18T02:54:29.467Z,39.70
2018-09-18T02:57:09.131Z,40.63
2018-09-18T02:59:48.367Z,42.03
2018-09-18T03:02:29.511Z,38.13
2018-09-18T03:05:09.112Z,43.60
2018-09-18T03:07:49.227Z,47.70
2018-09-18T03:10:28.052Z,40.03
2018-09-18T03:13:07.228Z,38.40
2018-09-18T03:16:00.929Z,57.33
2018-09-18T03:18:39.773Z,46.53
2018-09-18T03:21:19.490Z,47.93
2018-09-18T03:24:00.213Z,53.07
2018-09-18T03:26:40.332Z,52.13
2018-09-18T03:29:19.089Z,49.67
2018-09-18T03:31:58.529Z,45.57
2018-09-18T03:34:37.078Z,112.27
2018-09-18T03:37:16.892Z,92.93
2018-09-18T03:39:56.355Z,131.27
2018-09-18T03:42:35.297Z,67.47
2018-09-18T03:45:14.871Z,70.63
2018-09-18T03:47:53.753Z,53.03
2018-09-18T03:50:34.395Z,49.77
2018-09-18T03:53:14.229Z,52.23
2018-09-18T03:55:55.791Z,46.07
2018-09-18T03:58:33.130Z,44.80
2018-09-18T04:01:15.927Z,47.40
2018-09-18T04:03:55.588Z,55.97
2018-09-18T04:06:35.570Z,41.70
2018-09-18T04:09:17.873Z,54.40
2018-09-18T04:11:57.008Z,53.33
2018-09-18T04:14:37.554Z,60.20
2018-09-18T04:17:20.164Z,76.20
2018-09-18T04:20:02.889Z,60.00
2018-09-18T04:22:47.065Z,99.27
2018-09-18T04:25:27.350Z,100.63
2018-09-18T04:28:07.610Z,105.00
2018-09-18T04:30:48.230Z,112.20
2018-09-18T04:33:26.066Z,119.73
2018-09-18T04:36:05.668Z,113.10
2018-09-18T04:38:46.493Z,128.80
2018-09-18T04:41:26.469Z,137.07
2018-09-18T04:44:09.408Z,173.90
2018-09-18T04:46:50.033Z,146.73
2018-09-18T04:49:31.372Z,126.90
2018-09-18T04:52:10.632Z,127.80
2018-09-18T04:54:50.425Z,178.37
2018-09-18T04:57:31.370Z,222.77
2018-09-18T05:00:15.327Z,230.03
2018-09-18T05:03:02.647Z,244.33
2018-09-18T05:05:41.487Z,243.90
2018-09-18T05:08:19.147Z,255.13
2018-09-18T05:10:59.368Z,239.87
2018-09-18T05:13:40.697Z,239.80
2018-09-18T05:16:22.855Z,234.43
2018-09-18T05:19:05.257Z,153.87
2018-09-18T05:21:44.361Z,182.10
2018-09-18T05:24:25.219Z,200.40
2018-09-18T05:27:05.910Z,200.17
2018-09-18T05:29:45.913Z,215.60
2018-09-18T05:32:26.394Z,194.80
2018-09-18T05:35:07.612Z,222.07
2018-09-18T05:37:48.149Z,204.23
2018-09-18T05:40:27.736Z,156.17
2018-09-18T05:43:10.229Z,127.53
2018-09-18T05:46:06.851Z,87.47
2018-09-18T05:48:46.397Z,85.70
2018-09-18T05:51:26.368Z,70.83
2018-09-18T05:54:04.770Z,72.10
2018-09-18T05:56:45.867Z,83.90
2018-09-18T05:59:36.829Z,119.70
2018-09-18T06:02:21.452Z,193.43
2018-09-18T06:05:04.450Z,231.90
2018-09-18T06:07:43.197Z,251.63
2018-09-18T06:10:21.797Z,271.67
2018-09-18T06:13:02.489Z,359.70
2018-09-18T06:15:45.192Z,448.30
2018-09-18T06:18:25.090Z,438.43
2018-09-18T06:21:02.312Z,444.80
2018-09-18T06:23:39.749Z,534.83
2018-09-18T06:26:21.857Z,604.33
2018-09-18T06:29:03.034Z,443.17
2018-09-18T06:31:44.390Z,274.23
2018-09-18T06:34:22.351Z,388.00
2018-09-18T06:37:03.273Z,130.50
2018-09-18T06:39:45.416Z,196.93
2018-09-18T06:42:24.178Z,158.17
2018-09-18T06:45:03.572Z,100.60
2018-09-18T06:47:45.712Z,118.13
2018-09-18T06:50:24.865Z,172.27
2018-09-18T06:53:03.009Z,206.77
2018-09-18T06:55:41.389Z,241.47
2018-09-18T06:58:19.707Z,220.10
2018-09-18T07:00:58.733Z,189.40
2018-09-18T07:03:39.534Z,341.00
2018-09-18T07:06:18.926Z,187.70
2018-09-18T07:08:59.674Z,401.23
2018-09-18T07:11:56.009Z,222.20
2018-09-18T07:14:38.213Z,814.07
2018-09-18T07:17:19.529Z,317.93
2018-09-18T07:19:56.090Z,148.33
2018-09-18T07:22:34.612Z,764.83
2018-09-18T07:25:11.530Z,400.90
2018-09-18T07:27:51.170Z,789.97
2018-09-18T07:30:32.409Z,707.00
2018-09-18T07:33:13.408Z,251.43
2018-09-18T07:35:56.752Z,292.03
2018-09-18T07:38:37.974Z,246.77
2018-09-18T07:41:16.015Z,325.40
2018-09-18T07:43:56.228Z,195.50
2018-09-18T07:46:33.809Z,129.97
2018-09-18T07:49:10.554Z,136.33
2018-09-18T07:51:50.155Z,316.07
2018-09-18T07:54:29.590Z,234.57
2018-09-18T07:57:08.154Z,148.53
2018-09-18T07:59:45.852Z,99.63
2018-09-18T08:02:22.414Z,194.43
2018-09-18T08:04:59.412Z,83.60
2018-09-18T08:07:37.050Z,132.50
2018-09-18T08:10:15.109Z,261.50
2018-09-18T08:12:53.297Z,585.27
2018-09-18T08:15:33.611Z,425.87
2018-09-18T08:18:11.348Z,691.50
2018-09-18T08:20:49.694Z,730.80
2018-09-18T08:23:31.269Z,176.63
2018-09-18T08:26:09.855Z,77.67
2018-09-18T08:28:46.950Z,281.67
2018-09-18T08:31:25.791Z,310.53
2018-09-18T08:34:08.231Z,160.83
2018-09-18T08:36:47.108Z,314.80
2018-09-18T08:39:24.845Z,703.20
2018-09-18T08:42:06.452Z,625.03
2018-09-18T08:44:49.134Z,347.80
2018-09-18T08:47:34.519Z,29.77
2018-09-18T08:50:14.969Z,38.30
2018-09-18T08:52:52.812Z,35.83
2018-09-18T08:55:35.291Z,72.10
2018-09-18T08:58:13.092Z,234.20
2018-09-18T09:00:51.115Z,265.40
2018-09-18T09:03:32.172Z,284.93
2018-09-18T09:06:13.674Z,191.10
2018-09-18T09:08:55.210Z,108.43
2018-09-18T09:11:37.633Z,51.27
2018-09-18T09:14:15.055Z,41.93
2018-09-18T09:16:56.413Z,70.67
2018-09-18T09:19:35.625Z,113.13
2018-09-18T09:22:17.041Z,112.10
2018-09-18T09:24:57.157Z,162.87
2018-09-18T09:27:34.372Z,256.27
2018-09-18T09:30:14.693Z,276.13
2018-09-18T09:32:56.479Z,174.93
2018-09-18T09:35:40.049Z,87.97
2018-09-18T09:38:21.903Z,78.20
2018-09-18T09:41:04.453Z,33.60
2018-09-18T09:43:48.466Z,27.55
2018-09-18T09:46:28.490Z,32.63
2018-09-18T09:49:07.747Z,29.57
2018-09-18T09:51:48.391Z,26.73
2018-09-18T09:54:27.099Z,26.42
2018-09-18T09:57:06.397Z,25.48
2018-09-18T09:59:46.198Z,32.60
2018-09-18T10:02:28.457Z,46.33
2018-09-18T10:05:05.557Z,35.95
2018-09-18T10:07:52.213Z,50.50
2018-09-18T10:10:33.429Z,42.45
2018-09-18T10:13:14.208Z,45.58
2018-09-18T10:15:54.036Z,34.60
2018-09-18T10:48:14.556Z,19.30
2018-09-18T10:50:54.299Z,19.30
2018-09-18T10:53:36.272Z,22.82
2018-09-18T10:56:15.931Z,27.82
2018-09-18T10:58:54.379Z,25.82
2018-09-18T17:00:28.957Z,30.55
2018-09-18T17:03:09.607Z,31.80
2018-09-18T17:05:50.743Z,29.55
2018-09-18T17:08:31.582Z,27.45
2018-09-18T17:11:11.064Z,25.90
2018-09-18T17:13:52.293Z,24.80
2018-09-18T17:16:31.503Z,23.67
2018-09-18T17:19:10.663Z,25.32
2018-09-18T17:21:50.627Z,24.87
2018-09-18T17:24:30.701Z,25.92
2018-09-18T17:27:12.727Z,25.02
2018-09-18T17:29:49.591Z,26.35
2018-09-18T17:32:27.808Z,26.23
2018-09-18T17:35:05.965Z,27.85
2018-09-18T17:37:43.820Z,29.18
2018-09-18T17:40:31.711Z,32.48
2018-09-18T17:43:09.266Z,33.78
2018-09-18T17:45:47.698Z,34.67
2018-09-18T17:48:24.288Z,35.95
2018-09-18T17:51:02.768Z,39.27
2018-09-18T17:53:42.159Z,43.92
2018-09-18T17:56:21.346Z,47.17
2018-09-18T17:59:00.388Z,55.03
2018-09-18T18:01:40.903Z,68.77
2018-09-18T18:04:19.906Z,97.27
2018-09-18T18:07:01.367Z,130.40
2018-09-18T19:27:23.008Z,33.90
2018-09-18T19:30:03.549Z,85.93
2018-09-18T19:32:44.179Z,38.57
2018-09-18T19:35:25.236Z,49.83
2018-09-18T19:38:10.793Z,46.47
2018-09-18T19:40:51.675Z,43.83
2018-09-18T19:43:29.818Z,45.60
2018-09-18T19:46:14.733Z,38.83
2018-09-18T19:48:55.235Z,30.77
2018-09-18T19:51:36.326Z,30.37
2018-09-18T19:54:14.351Z,31.07
2018-09-18T19:56:52.947Z,30.60
2018-09-18T19:59:31.063Z,36.60
2018-09-18T20:02:09.936Z,31.97
2018-09-18T20:04:48.062Z,32.27
2018-09-18T20:07:26.674Z,79.60
2018-09-18T20:10:05.023Z,56.00
2018-09-18T20:12:44.369Z,123.07
2018-09-18T20:15:23.274Z,40.87
2018-09-18T20:18:03.776Z,52.67
2018-09-18T20:20:44.752Z,48.07
2018-09-18T20:23:27.268Z,51.53
2018-09-18T20:26:10.556Z,61.33
2018-09-18T20:28:56.344Z,56.43
2018-09-18T20:31:40.886Z,44.63
2018-09-18T20:34:22.446Z,166.53
2018-09-18T20:37:06.594Z,705.60
2018-09-18T20:39:50.214Z,481.33
2018-09-18T20:42:31.826Z,469.30
2018-09-18T20:45:12.476Z,459.53
2018-09-18T20:47:52.136Z,196.13
2018-09-18T20:50:35.773Z,421.67
2018-09-18T20:53:15.215Z,624.47
2018-09-18T20:55:52.609Z,615.47
2018-09-18T20:58:31.556Z,630.67
2018-09-18T21:01:12.351Z,685.47
2018-09-18T21:03:53.149Z,757.07
2018-09-18T21:06:31.774Z,767.03
2018-09-18T21:09:12.929Z,809.80
2018-09-18T21:11:50.889Z,868.37
2018-09-18T21:14:30.668Z,880.93
2018-09-18T21:17:11.494Z,898.27
2018-09-18T23:22:24.713Z,95.70
2018-09-18T23:25:04.147Z,211.63
2018-09-18T23:27:43.530Z,359.90
2018-09-18T23:30:23.509Z,416.00
2018-09-18T23:33:03.828Z,397.63
2018-09-18T23:35:49.415Z,376.70
2018-09-18T23:38:28.873Z,316.10
2018-09-18T23:41:12.893Z,323.87
2018-09-18T23:43:58.468Z,369.50
2018-09-18T23:46:37.271Z,386.20
2018-09-18T23:49:17.169Z,356.30
2018-09-18T23:51:54.447Z,359.97
2018-09-18T23:54:32.469Z,354.17
2018-09-18T23:57:12.146Z,377.00
2018-09-18T23:59:53.292Z,343.07
